createdAt,value
2019-03-01T00:00:00.396Z,2.36
2019-03-01T00:01:02.707Z,2.45
2019-03-01T00:01:40.573Z,2.45
2019-03-01T00:02:11.753Z,2.44
2019-03-01T00:02:42.933Z,2.45
2019-03-01T00:03:14.108Z,2.43
2019-03-01T00:03:50.477Z,2.43
2019-03-01T00:04:27.373Z,2.42
2019-03-01T00:05:05.279Z,2.42
2019-03-01T00:05:59.887Z,2.41
2019-03-01T00:06:48.491Z,2.41
2019-03-01T00:08:07.587Z,2.41
2019-03-01T00:09:18.965Z,2.40
2019-03-01T00:10:01.752Z,2.39
2019-03-01T00:11:07.142Z,2.39
2019-03-01T00:11:53.877Z,2.29
2019-03-01T00:12:57.743Z,2.39
2019-03-01T00:13:54.908Z,2.39
2019-03-01T00:14:49.678Z,2.40
2019-03-01T00:15:26.660Z,2.42
2019-03-01T00:16:12.636Z,2.41
2019-03-01T00:17:10.748Z,2.41
2019-03-01T00:17:56.342Z,2.41
2019-03-01T00:18:45.110Z,2.39
2019-03-01T00:19:44.472Z,2.37
2019-03-01T00:20:30.113Z,2.38
2019-03-01T00:21:18.593Z,2.37
2019-03-01T00:22:25.771Z,2.34
2019-03-01T00:23:25.027Z,2.34
2019-03-01T00:24:10.652Z,2.34
2019-03-01T00:25:05.429Z,2.34
2019-03-01T00:25:48.165Z,2.33
2019-03-01T00:26:31.027Z,2.32
2019-03-01T00:27:10.576Z,2.30
2019-03-01T00:28:11.639Z,2.29
2019-03-01T00:29:21.227Z,2.27
2019-03-01T00:30:29.801Z,2.29
2019-03-01T00:31:24.511Z,2.28
2019-03-01T00:32:33.915Z,2.26
2019-03-01T00:33:26.214Z,2.25
2019-03-01T00:34:31.088Z,2.23
2019-03-01T00:35:13.568Z,2.22
2019-03-01T00:36:16.884Z,2.22
2019-03-01T00:37:15.811Z,2.22
2019-03-01T00:38:15.082Z,2.22
2019-03-01T00:39:17.429Z,2.10
2019-03-01T00:40:20.796Z,2.21
2019-03-01T00:41:24.691Z,2.20
2019-03-01T00:42:16.442Z,2.20
2019-03-01T00:43:11.144Z,2.25
2019-03-01T00:44:02.478Z,2.25
2019-03-01T00:44:40.319Z,2.24
2019-03-01T00:45:11.477Z,2.28
2019-03-01T00:45:42.659Z,2.28
2019-03-01T00:46:13.831Z,2.29
2019-03-01T00:46:45.002Z,2.29
2019-03-01T00:47:16.164Z,2.28
2019-03-01T00:47:47.365Z,2.30
2019-03-01T00:48:18.526Z,2.34
2019-03-01T00:48:49.743Z,2.34
2019-03-01T00:49:21.897Z,2.35
2019-03-01T00:49:53.136Z,2.34
2019-03-01T00:50:24.295Z,2.34
2019-03-01T00:50:55.512Z,2.33
2019-03-01T00:51:26.647Z,2.33
2019-03-01T00:51:57.908Z,2.29
2019-03-01T00:52:29.107Z,2.31
2019-03-01T00:53:00.259Z,2.30
2019-03-01T00:53:31.462Z,2.29
2019-03-01T00:54:02.615Z,2.26
2019-03-01T00:54:35.077Z,2.25
2019-03-01T00:55:07.201Z,2.22
2019-03-01T00:55:38.549Z,2.23
2019-03-01T00:56:09.789Z,2.23
2019-03-01T00:56:40.989Z,2.24
2019-03-01T00:57:12.231Z,2.24
2019-03-01T00:57:43.401Z,2.24
2019-03-01T00:58:14.554Z,2.17
2019-03-01T00:58:45.762Z,2.27
2019-03-01T00:59:16.912Z,2.17
2019-03-01T00:59:48.132Z,2.26
2019-03-01T01:00:36.373Z,2.26
2019-03-01T01:01:07.600Z,2.24
2019-03-01T01:01:38.765Z,2.18
2019-03-01T01:02:10.082Z,2.30
2019-03-01T01:02:41.266Z,2.30
2019-03-01T01:03:12.440Z,2.33
2019-03-01T01:03:43.616Z,2.34
2019-03-01T01:04:14.798Z,2.35
2019-03-01T01:04:45.960Z,2.35
2019-03-01T01:05:17.124Z,2.37
2019-03-01T01:05:48.332Z,2.24
2019-03-01T01:06:19.522Z,2.24
2019-03-01T01:06:50.767Z,2.31
2019-03-01T01:07:23.017Z,2.32
2019-03-01T01:07:54.217Z,2.31
2019-03-01T01:08:25.468Z,2.30
2019-03-01T01:08:56.764Z,2.27
2019-03-01T01:12:48.552Z,2.15
2019-03-01T01:13:20.725Z,2.12
2019-03-01T01:13:51.911Z,2.11
2019-03-01T01:14:23.072Z,2.12
2019-03-01T01:14:54.275Z,2.12
2019-03-01T01:15:25.427Z,2.13
2019-03-01T01:15:56.650Z,2.11
2019-03-01T01:16:27.786Z,2.11
2019-03-01T01:16:59.000Z,2.11
2019-03-01T01:17:30.158Z,2.11
2019-03-01T01:18:01.359Z,2.10
2019-03-01T01:18:32.535Z,2.10
2019-03-01T01:19:03.721Z,2.10
2019-03-01T01:19:35.034Z,2.08
2019-03-01T01:20:08.241Z,2.08
2019-03-01T01:20:39.409Z,2.06
2019-03-01T01:21:10.605Z,2.06
2019-03-01T01:21:41.760Z,2.07
2019-03-01T01:22:12.968Z,2.07
2019-03-01T01:22:44.155Z,2.09
2019-03-01T01:23:15.377Z,2.10
2019-03-01T01:23:46.536Z,2.05
2019-03-01T01:24:17.734Z,2.07
2019-03-01T01:24:48.923Z,2.08
2019-03-01T01:25:20.110Z,2.06
2019-03-01T01:25:51.298Z,2.09
2019-03-01T01:26:22.498Z,2.08
2019-03-01T01:26:53.664Z,2.08
2019-03-01T01:27:24.860Z,2.08
2019-03-01T01:27:56.065Z,2.08
2019-03-01T01:28:27.236Z,2.09
2019-03-01T01:28:58.430Z,2.08
2019-03-01T01:29:29.629Z,1.95
2019-03-01T01:30:00.830Z,1.95
2019-03-01T01:30:31.998Z,2.03
2019-03-01T01:31:03.210Z,1.99
2019-03-01T01:31:34.366Z,1.99
2019-03-01T01:32:05.552Z,2.00
2019-03-01T01:32:36.700Z,2.00
2019-03-01T01:33:07.923Z,2.00
2019-03-01T01:33:39.066Z,1.96
2019-03-01T01:34:10.268Z,1.94
2019-03-01T01:34:41.420Z,1.93
2019-03-01T01:35:12.618Z,1.83
2019-03-01T01:35:43.791Z,1.93
2019-03-01T01:36:14.991Z,1.93
2019-03-01T01:36:46.167Z,1.94
2019-03-01T01:37:17.372Z,1.92
2019-03-01T01:37:48.549Z,1.89
2019-03-01T01:38:19.749Z,1.89
2019-03-01T01:38:50.893Z,1.86
2019-03-01T01:39:23.176Z,1.84
2019-03-01T01:39:54.461Z,1.85
2019-03-01T01:40:25.667Z,1.85
2019-03-01T01:40:56.811Z,1.84
2019-03-01T01:41:27.997Z,1.84
2019-03-01T01:41:59.159Z,1.86
2019-03-01T01:42:30.371Z,1.86
2019-03-01T01:43:01.523Z,1.87
2019-03-01T01:43:32.723Z,1.86
2019-03-01T01:44:03.899Z,1.76
2019-03-01T01:44:35.240Z,1.76
2019-03-01T01:45:09.308Z,1.86
2019-03-01T01:45:40.516Z,1.76
2019-03-01T01:46:11.678Z,1.76
2019-03-01T01:46:42.880Z,1.87
2019-03-01T01:47:14.038Z,1.86
2019-03-01T01:47:45.236Z,1.85
2019-03-01T01:48:16.420Z,1.85
2019-03-01T01:48:47.592Z,1.77
2019-03-01T01:49:18.765Z,1.78
2019-03-01T01:49:49.959Z,1.92
2019-03-01T01:50:21.134Z,1.92
2019-03-01T01:50:52.322Z,1.92
2019-03-01T01:51:23.494Z,1.92
2019-03-01T01:51:54.683Z,1.90
2019-03-01T01:52:25.879Z,1.88
2019-03-01T01:52:57.079Z,1.84
2019-03-01T01:53:28.279Z,1.87
2019-03-01T01:54:00.472Z,1.87
2019-03-01T01:54:31.666Z,1.90
2019-03-01T01:55:04.747Z,1.92
2019-03-01T01:55:35.935Z,1.96
2019-03-01T01:56:07.119Z,1.96
2019-03-01T01:56:38.290Z,1.96
2019-03-01T01:57:09.465Z,1.84
2019-03-01T01:57:40.676Z,1.84
2019-03-01T01:58:11.831Z,1.92
2019-03-01T01:58:43.035Z,1.91
2019-03-01T01:59:14.187Z,1.91
2019-03-01T01:59:45.422Z,1.89
2019-03-01T02:00:16.582Z,1.89
2019-03-01T02:00:47.779Z,1.92
2019-03-01T02:01:18.919Z,1.95
2019-03-01T02:01:50.114Z,1.98
2019-03-01T02:02:21.273Z,1.98
2019-03-01T02:02:52.505Z,1.93
2019-03-01T02:03:23.695Z,1.93
2019-03-01T02:03:54.932Z,1.90
2019-03-01T02:04:26.172Z,1.89
2019-03-01T02:04:57.400Z,1.88
2019-03-01T02:05:28.622Z,1.87
2019-03-01T02:05:59.884Z,1.85
2019-03-01T02:06:31.123Z,1.83
2019-03-01T02:07:03.357Z,1.74
2019-03-01T02:07:34.868Z,1.79
2019-03-01T02:08:06.113Z,1.71
2019-03-01T02:08:37.444Z,1.71
2019-03-01T02:09:19.468Z,1.62
2019-03-01T02:09:50.672Z,1.62
2019-03-01T02:10:21.834Z,1.56
2019-03-01T02:10:53.040Z,1.50
2019-03-01T02:11:24.203Z,1.51
2019-03-01T02:11:55.394Z,1.51
2019-03-01T02:12:27.555Z,1.48
2019-03-01T02:12:58.748Z,1.48
2019-03-01T02:13:29.969Z,1.48
2019-03-01T02:14:01.199Z,1.48
2019-03-01T02:14:32.425Z,1.48
2019-03-01T02:15:08.460Z,1.47
2019-03-01T02:15:39.695Z,1.51
2019-03-01T02:16:10.922Z,1.44
2019-03-01T02:16:42.151Z,1.53
2019-03-01T02:17:13.393Z,1.53
2019-03-01T02:17:44.623Z,1.53
2019-03-01T02:18:15.841Z,1.51
2019-03-01T02:18:47.197Z,1.51
2019-03-01T02:19:18.364Z,1.52
2019-03-01T02:19:49.571Z,1.32
2019-03-01T02:20:20.720Z,1.42
2019-03-01T02:20:51.923Z,1.47
2019-03-01T02:21:24.082Z,1.48
2019-03-01T02:21:55.281Z,1.47
2019-03-01T02:22:26.447Z,1.45
2019-03-01T02:22:57.650Z,1.45
2019-03-01T02:23:28.803Z,1.44
2019-03-01T02:24:00.007Z,1.44
2019-03-01T02:24:31.157Z,1.44
2019-03-01T02:25:02.470Z,1.42
2019-03-01T02:25:34.692Z,1.42
2019-03-01T02:26:05.937Z,1.42
2019-03-01T02:26:37.124Z,1.42
2019-03-01T02:27:27.289Z,1.42
2019-03-01T02:27:58.536Z,1.42
2019-03-01T02:28:29.709Z,1.41
2019-03-01T02:29:00.914Z,1.32
2019-03-01T02:29:32.104Z,1.32
2019-03-01T02:30:16.970Z,1.46
2019-03-01T02:30:59.038Z,1.48
2019-03-01T02:31:30.543Z,1.45
2019-03-01T02:32:01.742Z,1.45
2019-03-01T02:32:37.458Z,1.46
2019-03-01T02:33:08.712Z,1.50
2019-03-01T02:33:39.896Z,1.49
2019-03-01T02:34:11.099Z,1.50
2019-03-01T02:34:42.271Z,1.51
2019-03-01T02:35:17.862Z,1.52
2019-03-01T02:35:49.133Z,1.50
2019-03-01T02:36:20.309Z,1.50
2019-03-01T02:36:51.488Z,1.51
2019-03-01T02:37:22.667Z,1.54
2019-03-01T02:37:53.868Z,1.56
2019-03-01T02:38:25.051Z,1.49
2019-03-01T02:38:56.253Z,1.49
2019-03-01T02:39:27.431Z,1.63
2019-03-01T02:39:59.714Z,1.63
2019-03-01T02:40:34.062Z,1.64
2019-03-01T02:41:05.265Z,1.70
2019-03-01T02:41:37.419Z,1.73
2019-03-01T02:42:08.607Z,1.73
2019-03-01T02:42:39.816Z,1.71
2019-03-01T02:43:11.019Z,1.75
2019-03-01T02:43:42.227Z,1.77
2019-03-01T02:44:13.414Z,1.77
2019-03-01T02:44:44.566Z,1.78
2019-03-01T02:45:20.172Z,1.75
2019-03-01T02:45:51.415Z,1.70
2019-03-01T02:46:22.635Z,1.54
2019-03-01T02:46:53.793Z,1.54
2019-03-01T02:47:25.002Z,1.61
2019-03-01T02:47:56.170Z,1.58
2019-03-01T02:48:27.397Z,1.52
2019-03-01T02:48:58.575Z,1.52
2019-03-01T02:49:29.758Z,1.48
2019-03-01T02:50:01.369Z,1.47
2019-03-01T02:50:32.644Z,1.42
2019-03-01T02:51:03.842Z,1.41
2019-03-01T02:51:35.195Z,1.41
2019-03-01T02:52:06.373Z,1.37
2019-03-01T02:52:37.646Z,1.38
2019-03-01T02:53:08.899Z,1.38
2019-03-01T02:53:40.237Z,1.36
2019-03-01T02:54:11.524Z,1.34
2019-03-01T02:54:42.701Z,1.26
2019-03-01T02:55:16.508Z,1.24
2019-03-01T02:55:47.760Z,1.29
2019-03-01T02:56:18.950Z,1.20
2019-03-01T02:56:50.097Z,1.20
2019-03-01T02:57:21.321Z,1.30
2019-03-01T02:57:52.482Z,1.30
2019-03-01T02:58:23.671Z,1.30
2019-03-01T02:58:54.829Z,1.28
2019-03-01T02:59:26.033Z,1.31
2019-03-01T02:59:57.187Z,1.25
2019-03-01T03:00:29.611Z,1.25
2019-03-01T03:01:00.859Z,1.32
2019-03-01T03:01:32.061Z,1.32
2019-03-01T03:02:03.246Z,1.21
2019-03-01T03:02:34.493Z,1.33
2019-03-01T03:03:05.649Z,1.34
2019-03-01T03:03:36.860Z,1.33
2019-03-01T03:04:08.067Z,1.33
2019-03-01T03:04:39.296Z,1.34
2019-03-01T03:05:10.533Z,1.38
2019-03-01T03:06:01.468Z,1.39
2019-03-01T03:06:37.442Z,1.36
2019-03-01T03:07:13.281Z,1.27
2019-03-01T03:07:59.121Z,1.27
2019-03-01T03:08:30.345Z,1.28
2019-03-01T03:09:01.686Z,1.27
2019-03-01T03:09:35.033Z,1.27
2019-03-01T03:10:07.093Z,1.25
2019-03-01T03:10:38.287Z,1.24
2019-03-01T03:11:09.459Z,1.25
2019-03-01T03:11:40.661Z,1.25
2019-03-01T03:12:11.816Z,1.27
2019-03-01T03:12:44.327Z,1.30
2019-03-01T03:13:15.486Z,1.31
2019-03-01T03:13:46.716Z,1.35
2019-03-01T03:14:17.966Z,1.35
2019-03-01T03:14:49.165Z,1.35
2019-03-01T03:15:30.835Z,1.33
2019-03-01T03:16:03.040Z,1.29
2019-03-01T03:16:34.300Z,1.25
2019-03-01T03:17:05.571Z,1.23
2019-03-01T03:17:36.726Z,1.22
2019-03-01T03:18:08.158Z,1.22
2019-03-01T03:18:39.327Z,1.20
2019-03-01T03:19:10.507Z,1.20
2019-03-01T03:19:41.721Z,1.19
2019-03-01T03:20:12.954Z,1.17
2019-03-01T03:20:44.185Z,1.16
2019-03-01T03:21:15.434Z,1.16
2019-03-01T03:21:46.675Z,1.11
2019-03-01T03:22:17.922Z,1.05
2019-03-01T03:22:49.159Z,1.05
2019-03-01T03:23:20.397Z,1.13
2019-03-01T03:23:51.777Z,1.13
2019-03-01T03:24:23.050Z,1.11
2019-03-01T03:24:54.260Z,1.10
2019-03-01T03:25:25.404Z,1.08
2019-03-01T03:25:56.707Z,1.08
2019-03-01T03:26:27.875Z,1.07
2019-03-01T03:26:59.069Z,1.09
2019-03-01T03:27:30.237Z,1.09
2019-03-01T03:28:01.429Z,1.09
2019-03-01T03:28:33.608Z,1.09
2019-03-01T03:29:04.768Z,1.09
2019-03-01T03:29:35.927Z,1.12
2019-03-01T03:30:18.293Z,1.10
2019-03-01T03:30:49.444Z,1.09
2019-03-01T03:31:20.609Z,1.12
2019-03-01T03:31:51.898Z,1.09
2019-03-01T03:32:23.213Z,1.09
2019-03-01T03:32:54.400Z,1.09
2019-03-01T03:33:26.023Z,1.08
2019-03-01T03:33:57.202Z,0.97
2019-03-01T03:34:28.465Z,1.05
2019-03-01T03:34:59.702Z,1.06
2019-03-01T03:35:30.860Z,1.05
2019-03-01T03:36:02.011Z,1.04
2019-03-01T03:36:33.199Z,1.04
2019-03-01T03:37:04.611Z,1.03
2019-03-01T03:37:35.772Z,1.02
2019-03-01T03:38:06.947Z,1.02
2019-03-01T03:38:38.095Z,1.01
2019-03-01T03:39:09.937Z,1.02
2019-03-01T03:39:41.114Z,1.00
2019-03-01T03:40:13.781Z,1.04
2019-03-01T03:40:44.945Z,1.01
2019-03-01T03:41:16.196Z,1.06
2019-03-01T03:41:47.345Z,1.07
2019-03-01T03:42:18.541Z,1.00
2019-03-01T03:42:49.719Z,1.12
2019-03-01T03:43:22.862Z,1.13
2019-03-01T03:43:53.978Z,1.16
2019-03-01T03:44:25.225Z,1.16
2019-03-01T03:44:56.406Z,1.18
2019-03-01T03:45:27.590Z,1.18
2019-03-01T03:45:58.789Z,1.19
2019-03-01T03:46:29.970Z,1.21
2019-03-01T03:47:01.168Z,1.21
2019-03-01T03:47:32.345Z,1.21
2019-03-01T03:48:03.509Z,1.20
2019-03-01T03:48:36.228Z,1.19
2019-03-01T03:49:07.910Z,1.17
2019-03-01T03:49:39.088Z,1.07
2019-03-01T03:50:14.115Z,1.18
2019-03-01T03:50:45.296Z,1.18
2019-03-01T03:51:16.514Z,1.18
2019-03-01T03:51:47.694Z,1.15
2019-03-01T03:52:18.873Z,1.19
2019-03-01T03:52:50.114Z,1.19
2019-03-01T03:53:21.360Z,1.21
2019-03-01T03:53:52.615Z,1.20
2019-03-01T03:54:23.873Z,1.17
2019-03-01T03:54:55.094Z,1.17
2019-03-01T03:55:26.347Z,1.16
2019-03-01T03:55:57.602Z,1.16
2019-03-01T03:56:28.805Z,1.16
2019-03-01T03:56:59.941Z,1.18
2019-03-01T03:57:31.170Z,1.19
2019-03-01T03:58:02.325Z,1.19
2019-03-01T03:58:33.564Z,1.09
2019-03-01T03:59:04.778Z,1.19
2019-03-01T03:59:35.974Z,1.19
2019-03-01T04:00:14.665Z,1.19
2019-03-01T04:00:45.929Z,1.20
2019-03-01T04:01:17.153Z,1.20
2019-03-01T04:01:48.362Z,1.21
2019-03-01T04:02:19.697Z,1.21
2019-03-01T04:02:50.975Z,1.22
2019-03-01T04:03:22.206Z,1.22
2019-03-01T04:03:53.457Z,1.18
2019-03-01T04:04:24.706Z,1.18
2019-03-01T04:04:56.024Z,1.18
2019-03-01T04:05:27.237Z,1.16
2019-03-01T04:05:58.392Z,1.17
2019-03-01T04:06:29.602Z,1.16
2019-03-01T04:07:00.761Z,1.14
2019-03-01T04:07:31.966Z,1.14
2019-03-01T04:08:03.139Z,1.16
2019-03-01T04:08:34.499Z,1.15
2019-03-01T04:09:05.763Z,1.15
2019-03-01T04:09:38.864Z,1.16
2019-03-01T04:10:10.652Z,1.16
2019-03-01T04:10:41.893Z,1.16
2019-03-01T04:11:13.171Z,1.06
2019-03-01T04:11:44.480Z,1.14
2019-03-01T04:12:15.710Z,1.18
2019-03-01T04:12:47.007Z,1.17
2019-03-01T04:13:18.322Z,1.15
2019-03-01T04:13:49.554Z,1.11
2019-03-01T04:14:20.816Z,1.09
2019-03-01T04:14:52.108Z,1.09
2019-03-01T04:15:23.295Z,1.11
2019-03-01T04:15:54.439Z,0.95
2019-03-01T04:16:25.836Z,0.98
2019-03-01T04:16:56.997Z,1.05
2019-03-01T04:17:28.197Z,1.05
2019-03-01T04:17:59.385Z,1.04
2019-03-01T04:18:30.679Z,1.02
2019-03-01T04:19:01.843Z,1.03
2019-03-01T04:19:33.255Z,1.01
2019-03-01T04:20:09.218Z,0.99
2019-03-01T04:20:40.445Z,0.88
2019-03-01T04:21:12.710Z,1.00
2019-03-01T04:21:43.942Z,1.00
2019-03-01T04:22:15.200Z,1.00
2019-03-01T04:22:46.408Z,1.00
2019-03-01T04:23:17.575Z,1.01
2019-03-01T04:23:48.802Z,1.01
2019-03-01T04:24:19.952Z,1.01
2019-03-01T04:24:51.178Z,1.03
2019-03-01T04:25:22.364Z,1.06
2019-03-01T04:25:53.599Z,1.07
2019-03-01T04:26:24.835Z,1.07
2019-03-01T04:26:56.065Z,1.05
2019-03-01T04:27:27.301Z,1.04
2019-03-01T04:27:58.545Z,1.04
2019-03-01T04:28:29.738Z,1.03
2019-03-01T04:29:00.938Z,1.03
2019-03-01T04:29:32.097Z,1.03
2019-03-01T04:30:08.698Z,0.96
2019-03-01T04:30:39.876Z,1.03
2019-03-01T04:31:11.057Z,1.03
2019-03-01T04:31:42.241Z,1.02
2019-03-01T04:32:13.635Z,1.03
2019-03-01T04:32:44.824Z,1.02
2019-03-01T04:33:16.000Z,1.02
2019-03-01T04:33:47.177Z,1.04
2019-03-01T04:34:18.369Z,1.03
2019-03-01T04:34:49.557Z,1.03
2019-03-01T04:35:20.731Z,0.95
2019-03-01T04:35:51.917Z,0.97
2019-03-01T04:36:23.099Z,0.97
2019-03-01T04:36:54.286Z,0.96
2019-03-01T04:37:26.463Z,0.93
2019-03-01T04:37:57.659Z,0.95
2019-03-01T04:38:28.830Z,0.95
2019-03-01T04:39:00.021Z,0.93
2019-03-01T04:39:31.208Z,0.93
2019-03-01T04:40:04.110Z,0.94
2019-03-01T04:40:35.364Z,0.93
2019-03-01T04:41:06.604Z,0.93
2019-03-01T04:41:37.811Z,0.94
2019-03-01T04:42:08.982Z,0.94
2019-03-01T04:42:40.185Z,0.94
2019-03-01T04:43:11.334Z,0.95
2019-03-01T04:43:42.590Z,0.93
2019-03-01T04:44:13.918Z,0.93
2019-03-01T04:44:45.112Z,0.93
2019-03-01T04:45:17.170Z,0.91
2019-03-01T04:45:48.376Z,0.91
2019-03-01T04:46:19.550Z,0.88
2019-03-01T04:46:50.804Z,0.87
2019-03-01T04:47:21.966Z,0.87
2019-03-01T04:47:53.178Z,0.88
2019-03-01T04:48:24.331Z,0.90
2019-03-01T04:48:55.549Z,0.89
2019-03-01T04:49:26.707Z,0.89
2019-03-01T04:49:57.901Z,0.90
2019-03-01T04:50:29.053Z,0.92
2019-03-01T04:51:00.256Z,0.96
2019-03-01T04:51:39.866Z,0.98
2019-03-01T04:52:25.503Z,0.98
2019-03-01T04:52:56.677Z,1.01
2019-03-01T04:53:27.871Z,1.03
2019-03-01T04:53:59.047Z,1.07
2019-03-01T04:54:31.263Z,1.07
2019-03-01T04:55:11.163Z,0.98
2019-03-01T04:55:42.403Z,1.08
2019-03-01T04:56:13.600Z,1.06
2019-03-01T04:56:44.826Z,1.18
2019-03-01T04:57:15.975Z,1.18
2019-03-01T04:57:47.284Z,1.23
2019-03-01T04:58:18.445Z,1.23
2019-03-01T04:58:49.618Z,1.26
2019-03-01T04:59:20.810Z,1.27
2019-03-01T04:59:52.002Z,1.19
2019-03-01T05:00:23.886Z,1.29
2019-03-01T05:00:55.064Z,1.29
2019-03-01T05:01:26.234Z,1.34
2019-03-01T05:01:57.431Z,1.34
2019-03-01T05:02:28.583Z,1.34
2019-03-01T05:02:59.776Z,1.29
2019-03-01T05:03:30.925Z,1.29
2019-03-01T05:04:02.149Z,1.23
2019-03-01T05:04:33.284Z,1.23
2019-03-01T05:05:04.803Z,1.18
2019-03-01T05:05:35.939Z,1.18
2019-03-01T05:06:07.150Z,1.14
2019-03-01T05:06:38.286Z,1.12
2019-03-01T05:07:09.477Z,1.13
2019-03-01T05:07:40.637Z,1.09
2019-03-01T05:08:11.855Z,1.09
2019-03-01T05:08:43.003Z,1.05
2019-03-01T05:09:14.191Z,1.05
2019-03-01T05:09:45.467Z,1.01
2019-03-01T05:10:16.777Z,0.97
2019-03-01T05:10:47.940Z,0.97
2019-03-01T05:11:19.123Z,0.97
2019-03-01T05:11:50.284Z,0.96
2019-03-01T05:12:21.485Z,0.97
2019-03-01T05:12:52.663Z,0.95
2019-03-01T05:13:23.880Z,0.94
2019-03-01T05:13:55.039Z,0.95
2019-03-01T05:14:26.233Z,0.95
2019-03-01T05:14:57.393Z,0.95
2019-03-01T05:15:28.620Z,0.97
2019-03-01T05:15:59.805Z,0.98
2019-03-01T05:16:31.084Z,0.99
2019-03-01T05:17:02.335Z,1.00
2019-03-01T05:17:33.552Z,1.00
2019-03-01T05:18:05.070Z,1.01
2019-03-01T05:18:36.348Z,1.00
2019-03-01T05:19:07.598Z,0.99
2019-03-01T05:19:38.920Z,0.98
2019-03-01T05:20:10.254Z,0.96
2019-03-01T05:20:41.524Z,0.95
2019-03-01T05:21:12.778Z,0.95
2019-03-01T05:21:44.944Z,0.91
2019-03-01T05:22:16.139Z,0.91
2019-03-01T05:22:47.321Z,0.90
2019-03-01T05:23:19.605Z,0.89
2019-03-01T05:23:51.305Z,0.90
2019-03-01T05:24:22.595Z,0.92
2019-03-01T05:24:53.757Z,0.92
2019-03-01T05:25:24.975Z,0.95
2019-03-01T05:25:56.117Z,0.95
2019-03-01T05:26:27.343Z,0.96
2019-03-01T05:26:58.501Z,0.94
2019-03-01T05:27:29.692Z,0.98
2019-03-01T05:28:00.836Z,0.98
2019-03-01T05:28:32.045Z,0.96
2019-03-01T05:29:03.212Z,0.92
2019-03-01T05:29:34.621Z,0.91
2019-03-01T05:30:09.979Z,0.92
2019-03-01T05:30:41.222Z,0.90
2019-03-01T05:31:12.402Z,0.90
2019-03-01T05:31:43.636Z,0.91
2019-03-01T05:32:14.863Z,0.93
2019-03-01T05:32:46.108Z,0.93
2019-03-01T05:33:17.330Z,0.93
2019-03-01T05:33:48.548Z,0.91
2019-03-01T05:34:19.784Z,0.88
2019-03-01T05:34:51.028Z,0.86
2019-03-01T05:35:22.356Z,0.87
2019-03-01T05:35:53.572Z,0.87
2019-03-01T05:36:24.766Z,0.83
2019-03-01T05:36:55.927Z,0.87
2019-03-01T05:37:27.116Z,0.87
2019-03-01T05:37:58.267Z,0.87
2019-03-01T05:38:29.478Z,0.86
2019-03-01T05:39:01.638Z,0.87
2019-03-01T05:39:35.163Z,0.90
2019-03-01T05:40:10.247Z,0.86
2019-03-01T05:40:41.444Z,0.86
2019-03-01T05:41:12.655Z,0.75
2019-03-01T05:41:43.911Z,0.88
2019-03-01T05:42:15.115Z,0.88
2019-03-01T05:42:46.360Z,0.88
2019-03-01T05:43:17.603Z,0.88
2019-03-01T05:43:48.841Z,0.86
2019-03-01T05:44:20.069Z,0.82
2019-03-01T05:44:51.303Z,0.80
2019-03-01T05:45:26.029Z,0.73
2019-03-01T05:45:57.281Z,0.79
2019-03-01T05:46:28.505Z,0.72
2019-03-01T05:46:59.659Z,0.72
2019-03-01T05:47:30.862Z,0.84
2019-03-01T05:48:02.021Z,0.83
2019-03-01T05:48:34.620Z,0.83
2019-03-01T05:49:05.773Z,0.83
2019-03-01T05:49:36.972Z,0.88
2019-03-01T05:50:11.806Z,0.89
2019-03-01T05:50:43.022Z,0.83
2019-03-01T05:51:14.192Z,0.95
2019-03-01T05:51:45.407Z,0.97
2019-03-01T05:52:16.564Z,0.97
2019-03-01T05:52:47.762Z,1.01
2019-03-01T05:53:18.961Z,1.00
2019-03-01T05:53:50.141Z,1.02
2019-03-01T05:54:21.320Z,0.97
2019-03-01T05:54:53.518Z,0.96
2019-03-01T05:55:24.718Z,0.96
2019-03-01T05:55:55.950Z,0.98
2019-03-01T05:56:27.188Z,0.99
2019-03-01T05:56:58.343Z,0.99
2019-03-01T05:57:29.530Z,0.96
2019-03-01T05:58:30.870Z,0.93
2019-03-01T05:59:16.623Z,0.93
2019-03-01T05:59:48.823Z,0.88
2019-03-01T06:00:20.004Z,0.86
2019-03-01T06:00:53.585Z,0.83
2019-03-01T06:01:30.175Z,0.83
2019-03-01T06:02:21.909Z,0.80
2019-03-01T06:02:58.773Z,0.78
2019-03-01T06:03:38.386Z,0.78
2019-03-01T06:04:15.163Z,0.76
2019-03-01T06:04:54.143Z,0.72
2019-03-01T06:05:25.458Z,0.67
2019-03-01T06:05:56.656Z,0.65
2019-03-01T06:07:00.368Z,0.64
2019-03-01T06:07:54.432Z,0.63
2019-03-01T06:08:57.688Z,0.61
2019-03-01T06:09:58.316Z,0.69
2019-03-01T06:10:40.992Z,0.75
2019-03-01T06:11:17.868Z,0.83
2019-03-01T06:12:11.151Z,0.83
2019-03-01T06:13:10.501Z,0.86
2019-03-01T06:14:04.560Z,0.89
2019-03-01T06:14:55.587Z,0.93
2019-03-01T06:15:46.707Z,0.98
2019-03-01T06:16:26.569Z,1.03
2019-03-01T06:17:24.245Z,1.07
2019-03-01T06:18:18.914Z,1.05
2019-03-01T06:19:31.137Z,1.07
2019-03-01T06:20:22.893Z,1.07
2019-03-01T06:21:23.566Z,1.06
2019-03-01T06:22:06.248Z,1.04
2019-03-01T06:22:51.426Z,1.00
2019-03-01T06:24:03.160Z,0.98
2019-03-01T06:25:06.042Z,0.93
2019-03-01T06:25:57.229Z,0.85
2019-03-01T06:26:51.766Z,0.82
2019-03-01T06:28:04.548Z,0.81
2019-03-01T06:28:49.715Z,0.85
2019-03-01T06:29:29.318Z,0.93
2019-03-01T06:30:14.551Z,0.95
2019-03-01T06:31:03.334Z,0.99
2019-03-01T06:31:51.581Z,0.99
2019-03-01T06:32:29.451Z,1.05
2019-03-01T06:33:50.267Z,1.05
2019-03-01T06:34:38.675Z,1.03
2019-03-01T06:35:21.143Z,0.98
2019-03-01T06:36:19.470Z,0.99
2019-03-01T06:37:08.262Z,1.01
2019-03-01T06:38:04.690Z,1.04
2019-03-01T06:38:50.460Z,1.07
2019-03-01T06:39:48.481Z,1.04
2019-03-01T06:40:50.487Z,1.01
2019-03-01T06:41:36.390Z,1.03
2019-03-01T06:42:19.261Z,1.04
2019-03-01T06:43:01.650Z,1.05
2019-03-01T06:43:38.539Z,1.03
2019-03-01T06:44:27.300Z,1.03
2019-03-01T06:45:21.980Z,1.03
2019-03-01T06:46:39.543Z,1.03
2019-03-01T06:47:37.943Z,1.01
2019-03-01T06:48:11.062Z,0.98
2019-03-01T06:48:46.707Z,0.95
2019-03-01T06:49:19.793Z,0.90
2019-03-01T06:49:55.729Z,0.91
2019-03-01T06:50:28.859Z,0.90
2019-03-01T06:51:01.965Z,0.91
2019-03-01T06:51:33.215Z,0.91
2019-03-01T06:52:04.729Z,0.91
2019-03-01T06:52:35.970Z,0.92
2019-03-01T06:53:07.441Z,0.95
2019-03-01T06:53:38.678Z,0.95
2019-03-01T06:54:09.892Z,0.97
2019-03-01T06:54:41.119Z,1.00
2019-03-01T06:55:35.272Z,1.02
2019-03-01T06:56:06.915Z,1.05
2019-03-01T06:56:38.219Z,1.06
2019-03-01T06:57:09.349Z,1.09
2019-03-01T06:57:40.555Z,1.10
2019-03-01T06:58:16.708Z,1.12
2019-03-01T06:58:47.942Z,1.16
2019-03-01T06:59:19.104Z,1.16
2019-03-01T06:59:50.278Z,1.16
2019-03-01T07:00:21.552Z,1.08
2019-03-01T07:00:54.615Z,1.13
2019-03-01T07:01:27.164Z,1.14
2019-03-01T07:01:58.330Z,1.15
2019-03-01T07:02:31.512Z,1.16
2019-03-01T07:03:02.873Z,1.16
2019-03-01T07:03:34.051Z,1.18
2019-03-01T07:04:06.505Z,1.20
2019-03-01T07:04:37.665Z,1.19
2019-03-01T07:05:08.971Z,1.20
2019-03-01T07:05:40.127Z,1.19
2019-03-01T07:06:11.289Z,1.18
2019-03-01T07:06:42.451Z,1.18
2019-03-01T07:07:13.621Z,1.15
2019-03-01T07:07:44.768Z,1.19
2019-03-01T07:08:15.942Z,1.19
2019-03-01T07:08:47.101Z,1.20
2019-03-01T07:09:18.237Z,1.23
2019-03-01T07:09:49.409Z,1.26
2019-03-01T07:10:20.580Z,1.27
2019-03-01T07:10:52.763Z,1.29
2019-03-01T07:11:23.968Z,1.29
2019-03-01T07:11:55.109Z,1.29
2019-03-01T07:12:26.310Z,1.27
2019-03-01T07:12:57.449Z,1.27
2019-03-01T07:13:28.670Z,1.25
2019-03-01T07:13:59.822Z,1.25
2019-03-01T07:14:31.020Z,1.25
2019-03-01T07:15:07.147Z,1.25
2019-03-01T07:15:38.222Z,1.25
2019-03-01T07:16:09.366Z,1.27
2019-03-01T07:16:40.573Z,1.29
2019-03-01T07:17:11.722Z,1.33
2019-03-01T07:17:42.948Z,1.35
2019-03-01T07:18:14.152Z,1.37
2019-03-01T07:18:45.356Z,1.38
2019-03-01T07:19:16.515Z,1.38
2019-03-01T07:19:47.738Z,1.42
2019-03-01T07:20:19.009Z,1.45
2019-03-01T07:20:50.178Z,1.48
2019-03-01T07:21:21.359Z,1.48
2019-03-01T07:21:52.538Z,1.47
2019-03-01T07:22:23.715Z,1.46
2019-03-01T07:22:54.935Z,1.46
2019-03-01T07:23:26.115Z,1.46
2019-03-01T07:23:57.317Z,1.44
2019-03-01T07:24:28.565Z,1.42
2019-03-01T07:24:59.752Z,1.42
2019-03-01T07:25:30.960Z,1.42
2019-03-01T07:26:02.147Z,1.41
2019-03-01T07:26:33.326Z,1.41
2019-03-01T07:27:04.675Z,1.41
2019-03-01T07:27:35.856Z,1.41
2019-03-01T07:28:07.078Z,1.48
2019-03-01T07:28:38.257Z,1.48
2019-03-01T07:29:09.428Z,1.47
2019-03-01T07:29:40.595Z,1.47
2019-03-01T07:30:11.758Z,1.47
2019-03-01T07:30:42.994Z,1.45
2019-03-01T07:31:14.147Z,1.44
2019-03-01T07:31:45.344Z,1.45
2019-03-01T07:32:17.506Z,1.44
2019-03-01T07:32:48.763Z,1.44
2019-03-01T07:33:19.900Z,1.40
2019-03-01T07:33:51.135Z,1.36
2019-03-01T07:34:22.354Z,1.26
2019-03-01T07:34:53.565Z,1.26
2019-03-01T07:35:24.719Z,1.36
2019-03-01T07:35:55.939Z,1.37
2019-03-01T07:36:27.079Z,1.37
2019-03-01T07:36:58.406Z,1.45
2019-03-01T07:37:30.592Z,1.46
2019-03-01T07:38:01.799Z,1.46
2019-03-01T07:38:32.958Z,1.48
2019-03-01T07:39:07.560Z,1.48
2019-03-01T07:39:38.713Z,1.51
2019-03-01T07:40:10.921Z,1.52
2019-03-01T07:40:42.083Z,1.52
2019-03-01T07:41:13.319Z,1.51